Time;durP1;ratioP1;P1;durP2;ratioP2;P2;SDS_P1;SDS_P2;PMS_P1;PMS_P2;Temp;Humidity;BMP_temperature;BMP_pressure;BME280_temperature;BME280_humidity;BME280_pressure;Samples;Min_cycle;Max_cycle;Signal;HPM_P1;HPM_P2
2023/03/13 00:01:26;;;;;;;6.13;4.50;;;5.80;99.90;;;;;;5034546;28;20040;-55
2023/03/13 00:03:54;;;;;;;10.27;4.13;;;5.90;99.90;;;;;;5040216;28;20030;-55
2023/03/13 00:06:20;;;;;;;8.45;4.18;;;5.90;99.90;;;;;;5026305;28;20037;-57
2023/03/13 00:08:45;;;;;;;6.85;4.22;;;5.90;99.90;;;;;;5044133;28;20029;-57
2023/03/13 00:11:14;;;;;;;8.20;4.18;;;5.90;99.90;;;;;;5044274;28;20036;-53
2023/03/13 00:13:40;;;;;;;13.25;5.25;;;5.90;99.90;;;;;;5045146;28;20056;-55
2023/03/13 00:16:08;;;;;;;8.80;4.85;;;5.90;99.90;;;;;;5028788;28;20095;-61
2023/03/13 00:18:34;;;;;;;6.32;4.32;;;5.90;99.90;;;;;;5043672;28;20036;-61
2023/03/13 00:21:08;;;;;;;10.05;5.07;;;5.90;99.90;;;;;;5033386;28;20040;-60
2023/03/13 00:23:35;;;;;;;8.48;4.28;;;5.90;99.90;;;;;;5009211;28;20113;-60
2023/03/13 00:26:03;;;;;;;7.60;4.55;;;5.90;99.90;;;;;;5034696;28;20021;-61
2023/03/13 00:28:30;;;;;;;7.03;4.15;;;6.00;99.90;;;;;;5048629;28;20036;-61
2023/03/13 00:31:14;;;;;;;7.18;4.68;;;6.00;99.90;;;;;;5028259;28;20116;-60
2023/03/13 00:33:41;;;;;;;12.55;5.95;;;6.00;99.90;;;;;;5010289;28;20037;-60
2023/03/13 00:36:12;;;;;;;11.38;5.43;;;6.00;99.90;;;;;;5032824;28;20041;-60
2023/03/13 00:38:38;;;;;;;10.45;4.70;;;6.00;99.90;;;;;;5010038;28;20116;-60
2023/03/13 00:41:12;;;;;;;7.15;4.72;;;6.00;99.90;;;;;;5031962;28;20100;-60
2023/03/13 00:43:39;;;;;;;15.20;4.50;;;6.00;99.90;;;;;;5009879;28;20100;-61
2023/03/13 00:46:05;;;;;;;10.05;4.72;;;6.00;99.90;;;;;;5032846;28;20029;-61
2023/03/13 00:48:32;;;;;;;8.85;5.22;;;6.00;99.90;;;;;;5048750;28;20059;-61
2023/03/13 00:50:57;;;;;;;15.15;5.75;;;6.00;99.90;;;;;;5027926;28;20397;-60
2023/03/13 00:53:23;;;;;;;8.15;4.07;;;6.00;99.90;;;;;;5048729;28;20021;-60
2023/03/13 00:56:00;;;;;;;11.48;5.15;;;6.10;99.90;;;;;;5028047;28;20035;-61
2023/03/13 00:58:28;;;;;;;8.77;5.15;;;6.10;99.90;;;;;;5009654;28;20022;-60
2023/03/13 01:00:54;;;;;;;13.57;4.60;;;6.10;99.90;;;;;;5034180;28;20033;-60
2023/03/13 01:03:24;;;;;;;9.85;4.97;;;6.10;99.90;;;;;;5048700;28;20089;-61
2023/03/13 01:06:01;;;;;;;14.00;5.65;;;6.10;99.90;;;;;;5034578;28;20378;-61
2023/03/13 01:08:27;;;;;;;11.43;5.55;;;6.10;99.90;;;;;;5029252;28;20063;-60
2023/03/13 01:11:08;;;;;;;19.05;5.95;;;6.10;99.90;;;;;;5032029;28;20029;-60
2023/03/13 01:13:34;;;;;;;10.63;4.97;;;6.10;99.90;;;;;;5008307;28;20054;-61
2023/03/13 01:16:05;;;;;;;7.65;4.18;;;6.20;99.90;;;;;;5030888;28;20048;-60
2023/03/13 01:18:32;;;;;;;9.65;5.07;;;6.20;99.90;;;;;;5048190;28;20028;-62
2023/03/13 01:20:57;;;;;;;12.15;5.75;;;6.20;99.90;;;;;;5027259;28;20511;-61
2023/03/13 01:23:23;;;;;;;20.15;6.60;;;6.20;99.90;;;;;;5048055;28;20033;-60
2023/03/13 01:25:48;;;;;;;12.27;6.00;;;6.20;99.90;;;;;;5027504;28;20049;-60
2023/03/13 01:28:14;;;;;;;10.40;4.70;;;6.20;99.90;;;;;;5047774;28;20162;-60
2023/03/13 01:30:39;;;;;;;11.82;5.53;;;6.30;99.90;;;;;;5032860;28;20037;-60
2023/03/13 01:33:04;;;;;;;12.55;4.88;;;6.30;99.90;;;;;;5048606;28;20032;-60
2023/03/13 01:35:30;;;;;;;9.82;5.57;;;6.30;99.90;;;;;;5037876;28;20036;-61
2023/03/13 01:37:56;;;;;;;11.35;5.50;;;6.40;99.90;;;;;;5028975;28;20493;-60
2023/03/13 01:40:21;;;;;;;10.85;5.25;;;6.40;99.90;;;;;;5045849;28;20025;-60
2023/03/13 01:42:56;;;;;;;16.38;6.85;;;6.40;99.90;;;;;;5029083;28;20429;-60
2023/03/13 01:45:49;;;;;;;11.38;6.28;;;6.40;99.90;;;;;;5046086;28;20048;-61
2023/03/13 01:48:14;;;;;;;16.13;6.72;;;6.40;99.90;;;;;;5028319;28;20029;-60
2023/03/13 01:50:40;;;;;;;19.13;5.88;;;6.50;99.90;;;;;;5033834;28;20033;-61
2023/03/13 01:53:06;;;;;;;13.90;5.82;;;6.50;99.90;;;;;;5047405;28;20079;-61
2023/03/13 01:55:32;;;;;;;8.57;5.93;;;6.50;99.90;;;;;;5037419;28;20032;-60
2023/03/13 01:57:58;;;;;;;12.75;6.30;;;6.50;99.90;;;;;;5028583;28;20116;-60
2023/03/13 02:00:27;;;;;;;15.18;6.32;;;6.60;99.90;;;;;;5045534;28;20112;-61
2023/03/13 02:02:55;;;;;;;15.60;6.50;;;6.60;99.90;;;;;;5027755;28;20065;-60
2023/03/13 02:05:25;;;;;;;9.45;5.05;;;6.60;99.90;;;;;;5042830;28;20037;-61
2023/03/13 02:08:01;;;;;;;13.30;6.28;;;6.60;99.90;;;;;;5027878;28;20468;-60
2023/03/13 02:10:30;;;;;;;12.27;6.00;;;6.60;99.90;;;;;;5027004;28;20119;-61
2023/03/13 02:12:56;;;;;;;15.50;6.65;;;6.60;99.90;;;;;;5028077;28;20025;-60
2023/03/13 02:15:24;;;;;;;9.95;5.30;;;6.60;99.90;;;;;;5045366;28;20040;-60
2023/03/13 02:17:50;;;;;;;12.77;6.20;;;6.60;99.90;;;;;;5027953;28;20087;-60
2023/03/13 02:20:21;;;;;;;16.45;5.85;;;6.60;99.90;;;;;;5045378;28;20037;-61
2023/03/13 02:23:24;;;;;;;11.00;6.28;;;6.60;99.90;;;;;;5008449;28;20038;-60
2023/03/13 02:25:52;;;;;;;15.95;7.38;;;6.60;99.90;;;;;;5031072;28;20033;-60
2023/03/13 02:28:34;;;;;;;12.32;6.15;;;6.60;99.90;;;;;;5047383;28;20322;-61
2023/03/13 02:31:00;;;;;;;12.27;5.97;;;6.60;99.90;;;;;;5029175;28;20080;-60
2023/03/13 02:33:29;;;;;;;12.18;5.93;;;6.60;99.90;;;;;;5028303;28;20465;-60
2023/03/13 02:35:55;;;;;;;12.85;5.70;;;6.60;99.90;;;;;;5031924;28;20025;-61
2023/03/13 02:38:25;;;;;;;10.90;5.07;;;6.60;99.90;;;;;;5047242;28;20028;-61
2023/03/13 02:40:52;;;;;;;9.07;5.10;;;6.60;99.90;;;;;;5019797;28;20041;-60
2023/03/13 02:43:29;;;;;;;15.85;5.15;;;6.60;99.90;;;;;;5047107;28;20056;-61
2023/03/13 02:46:06;;;;;;;10.48;4.78;;;6.60;99.90;;;;;;5019929;28;20022;-59
2023/03/13 02:48:35;;;;;;;14.57;5.50;;;6.60;99.90;;;;;;5046663;28;20447;-60
2023/03/13 02:51:03;;;;;;;16.45;5.15;;;6.60;99.90;;;;;;5026155;28;20021;-60
2023/03/13 02:53:29;;;;;;;9.55;4.90;;;6.60;99.90;;;;;;5047182;28;20025;-60
2023/03/13 02:55:55;;;;;;;13.25;5.82;;;6.70;99.90;;;;;;5026399;28;20049;-60
2023/03/13 02:58:23;;;;;;;12.73;6.53;;;6.70;99.90;;;;;;5046902;28;20033;-61
2023/03/13 03:00:49;;;;;;;10.52;5.07;;;6.70;99.90;;;;;;5029394;28;20260;-60
2023/03/13 03:03:14;;;;;;;10.93;4.88;;;6.70;99.90;;;;;;5050393;28;20029;-60
2023/03/13 03:05:40;;;;;;;10.40;4.78;;;6.70;99.90;;;;;;5036531;28;20033;-60
2023/03/13 03:08:05;;;;;;;11.55;4.53;;;6.70;99.90;;;;;;5031981;28;20084;-60
2023/03/13 03:10:31;;;;;;;14.38;5.15;;;6.70;99.90;;;;;;5048550;28;20033;-60
2023/03/13 03:12:56;;;;;;;12.43;5.25;;;6.70;99.90;;;;;;5032065;28;20033;-60
2023/03/13 03:15:22;;;;;;;12.98;5.45;;;6.70;99.90;;;;;;5048560;28;20410;-60
2023/03/13 03:17:47;;;;;;;9.23;4.28;;;6.70;99.90;;;;;;5031989;28;20159;-61
2023/03/13 03:20:13;;;;;;;15.05;5.78;;;6.70;99.90;;;;;;5048440;28;20033;-60
2023/03/13 03:22:39;;;;;;;11.48;5.38;;;6.70;99.90;;;;;;5032095;28;20037;-60
2023/03/13 03:25:06;;;;;;;10.60;4.63;;;6.70;99.90;;;;;;5048495;28;20559;-60
2023/03/13 03:27:32;;;;;;;18.02;4.85;;;6.70;99.90;;;;;;5050670;28;20037;-60
2023/03/13 03:29:57;;;;;;;12.40;4.60;;;6.80;99.90;;;;;;5035626;28;20048;-58
2023/03/13 03:32:23;;;;;;;13.32;4.28;;;6.80;99.90;;;;;;5051035;28;20032;-60
2023/03/13 03:34:49;;;;;;;10.13;4.10;;;6.80;99.90;;;;;;5034484;28;20031;-60
2023/03/13 03:37:14;;;;;;;10.15;4.68;;;6.90;99.90;;;;;;5050846;28;20033;-61
2023/03/13 03:39:40;;;;;;;7.72;3.58;;;6.90;99.90;;;;;;5033395;28;20485;-60
2023/03/13 03:42:05;;;;;;;10.48;4.13;;;6.90;99.90;;;;;;5050691;28;20486;-60
2023/03/13 03:44:31;;;;;;;10.32;4.07;;;6.90;99.90;;;;;;5031869;28;20620;-60
2023/03/13 03:46:56;;;;;;;11.25;4.03;;;7.00;99.90;;;;;;5050578;28;20060;-60
2023/03/13 03:49:22;;;;;;;12.15;4.00;;;7.00;99.90;;;;;;5030950;28;20075;-60
2023/03/13 03:51:48;;;;;;;14.65;4.05;;;7.00;99.90;;;;;;5050724;28;20020;-59
2023/03/13 03:54:13;;;;;;;15.43;3.92;;;7.00;99.90;;;;;;5029477;28;20025;-60
2023/03/13 03:56:39;;;;;;;7.55;2.92;;;7.00;99.90;;;;;;5050652;28;20473;-60
2023/03/13 03:59:04;;;;;;;12.85;4.10;;;7.10;99.90;;;;;;5031092;28;20052;-60
2023/03/13 04:01:30;;;;;;;10.50;3.72;;;7.10;99.90;;;;;;5028609;28;20029;-60
2023/03/13 04:03:55;;;;;;;10.75;3.08;;;7.10;99.90;;;;;;5049626;28;20052;-61
2023/03/13 04:06:21;;;;;;;10.85;2.92;;;7.10;99.90;;;;;;5023152;28;20025;-60
2023/03/13 04:08:46;;;;;;;10.65;2.88;;;7.20;99.90;;;;;;5049329;28;20397;-60
2023/03/13 04:11:11;;;;;;;11.48;3.25;;;7.20;99.90;;;;;;5028012;28;20091;-60
2023/03/13 04:13:37;;;;;;;12.43;3.95;;;7.20;99.90;;;;;;5049568;28;20037;-61
2023/03/13 04:16:07;;;;;;;12.80;3.88;;;7.20;99.90;;;;;;5028941;28;20091;-61
2023/03/13 04:18:32;;;;;;;10.00;3.72;;;7.20;99.90;;;;;;5049292;28;20280;-60
2023/03/13 04:21:02;;;;;;;8.23;3.25;;;7.20;99.90;;;;;;5028880;28;20037;-60
2023/03/13 04:23:28;;;;;;;6.18;2.97;;;7.20;99.90;;;;;;5049406;28;20040;-61
2023/03/13 04:25:53;;;;;;;10.75;3.00;;;7.20;99.90;;;;;;5028424;28;20034;-51
2023/03/13 04:28:19;;;;;;;11.82;2.70;;;7.20;99.90;;;;;;5049358;28;20140;-54
2023/03/13 04:30:44;;;;;;;8.05;3.33;;;7.30;99.90;;;;;;5034584;28;20389;-54
2023/03/13 04:33:10;;;;;;;10.20;2.85;;;7.30;99.90;;;;;;5049811;28;20059;-55
2023/03/13 04:35:35;;;;;;;6.65;2.67;;;7.30;99.90;;;;;;5028646;28;20045;-56
2023/03/13 04:38:01;;;;;;;15.18;3.78;;;7.30;99.90;;;;;;5040557;28;20409;-52
2023/03/13 04:40:27;;;;;;;9.60;2.70;;;7.30;99.90;;;;;;5029012;28;20021;-56
2023/03/13 04:42:53;;;;;;;13.15;3.05;;;7.40;99.90;;;;;;5030156;28;20040;-51
2023/03/13 04:45:18;;;;;;;7.80;3.03;;;7.40;99.90;;;;;;5048999;28;20116;-55
2023/03/13 04:47:45;;;;;;;12.20;2.88;;;7.40;99.90;;;;;;5029944;28;20537;-56
2023/03/13 04:50:11;;;;;;;7.68;3.13;;;7.40;99.90;;;;;;5048813;28;20041;-53
2023/03/13 04:52:36;;;;;;;9.32;2.75;;;7.40;99.90;;;;;;5028866;28;20048;-56
2023/03/13 04:55:02;;;;;;;9.95;3.05;;;7.40;99.90;;;;;;5048647;28;20115;-55
2023/03/13 04:57:28;;;;;;;16.75;2.90;;;7.40;99.90;;;;;;5027654;28;20389;-55
2023/03/13 04:59:53;;;;;;;11.40;3.05;;;7.40;99.90;;;;;;5048396;28;20082;-56
2023/03/13 05:02:19;;;;;;;8.95;2.53;;;7.40;99.90;;;;;;5029135;28;20501;-55
2023/03/13 05:04:44;;;;;;;13.20;3.53;;;7.40;99.90;;;;;;5026577;28;20030;-59
2023/03/13 05:07:09;;;;;;;16.13;3.28;;;7.40;99.90;;;;;;5044887;28;20150;-60
2023/03/13 05:09:35;;;;;;;12.07;2.72;;;7.50;99.90;;;;;;5027447;28;20101;-60
2023/03/13 05:12:00;;;;;;;7.93;2.55;;;7.40;99.90;;;;;;5047672;28;20480;-61
2023/03/13 05:14:26;;;;;;;17.52;3.60;;;7.50;99.90;;;;;;5025963;28;20037;-61
2023/03/13 05:16:51;;;;;;;7.15;2.47;;;7.50;99.90;;;;;;5047318;28;20037;-61
2023/03/13 05:19:17;;;;;;;10.65;3.67;;;7.50;99.90;;;;;;5026707;28;20129;-60
2023/03/13 05:21:42;;;;;;;16.35;3.40;;;7.50;99.90;;;;;;5047466;28;20029;-61
2023/03/13 05:24:08;;;;;;;12.70;3.42;;;7.50;99.90;;;;;;5025976;28;20569;-60
2023/03/13 05:26:33;;;;;;;14.80;2.88;;;7.50;99.90;;;;;;5047078;28;20060;-60
2023/03/13 05:28:59;;;;;;;17.42;3.08;;;7.50;99.90;;;;;;5026865;28;20033;-61
2023/03/13 05:31:24;;;;;;;18.48;3.95;;;7.50;99.90;;;;;;5046840;28;20047;-60
2023/03/13 05:33:50;;;;;;;14.55;2.95;;;7.50;99.90;;;;;;5026566;28;20037;-60
2023/03/13 05:36:15;;;;;;;13.27;3.35;;;7.50;99.90;;;;;;5047046;28;20116;-61
2023/03/13 05:38:41;;;;;;;13.57;3.22;;;7.50;99.90;;;;;;5036979;28;20546;-61
2023/03/13 05:41:06;;;;;;;9.90;2.70;;;7.50;99.90;;;;;;5028499;28;20048;-60
2023/03/13 05:43:31;;;;;;;16.55;3.83;;;7.50;99.90;;;;;;5044949;28;20032;-61
2023/03/13 05:45:57;;;;;;;14.88;3.65;;;7.60;99.90;;;;;;5032317;28;20263;-60
2023/03/13 05:48:23;;;;;;;11.00;3.55;;;7.50;99.90;;;;;;5046889;28;20041;-60
2023/03/13 05:50:48;;;;;;;12.80;3.97;;;7.60;99.90;;;;;;5029341;28;20021;-60
2023/03/13 05:53:14;;;;;;;10.27;2.88;;;7.60;99.90;;;;;;5045870;28;20520;-61
2023/03/13 05:55:39;;;;;;;12.13;3.63;;;7.60;99.90;;;;;;5048759;28;20025;-61
2023/03/13 05:58:05;;;;;;;15.15;3.97;;;7.60;99.90;;;;;;5032903;28;20474;-61
2023/03/13 06:00:30;;;;;;;14.23;3.25;;;7.60;99.90;;;;;;5020263;28;20100;-61
2023/03/13 06:02:55;;;;;;;18.33;4.25;;;7.70;99.90;;;;;;5026270;28;20028;-60
2023/03/13 06:05:21;;;;;;;22.10;3.70;;;7.70;99.90;;;;;;5036690;28;20032;-61
2023/03/13 06:07:49;;;;;;;14.90;3.63;;;7.70;99.90;;;;;;5034595;28;20275;-60
2023/03/13 06:10:14;;;;;;;22.08;4.90;;;7.70;99.90;;;;;;5047630;28;20016;-61
2023/03/13 06:12:41;;;;;;;12.02;4.13;;;7.70;99.90;;;;;;5031944;28;20082;-61
2023/03/13 06:15:08;;;;;;;11.57;3.00;;;7.70;99.90;;;;;;5041970;28;20034;-61
2023/03/13 06:17:34;;;;;;;13.75;4.45;;;7.80;99.90;;;;;;5044330;28;20071;-61
2023/03/13 06:19:59;;;;;;;12.82;3.38;;;7.70;99.90;;;;;;5047134;28;20512;-61
2023/03/13 06:22:25;;;;;;;8.18;3.10;;;7.80;99.90;;;;;;5029772;28;20029;-61
2023/03/13 06:24:50;;;;;;;12.05;3.55;;;7.80;99.90;;;;;;5046947;28;20025;-61
2023/03/13 06:27:16;;;;;;;13.18;3.45;;;7.80;99.90;;;;;;5028041;28;20590;-61
2023/03/13 06:29:42;;;;;;;11.82;3.35;;;7.80;99.90;;;;;;5047099;28;20531;-61
2023/03/13 06:32:07;;;;;;;13.02;3.17;;;7.90;99.90;;;;;;5027120;28;20565;-60
2023/03/13 06:34:33;;;;;;;14.43;4.13;;;7.90;99.90;;;;;;5046496;28;20052;-61
2023/03/13 06:36:59;;;;;;;13.52;3.63;;;8.00;99.90;;;;;;5025704;28;20248;-61
2023/03/13 06:39:24;;;;;;;15.50;4.00;;;8.00;99.90;;;;;;5046645;28;20016;-61
2023/03/13 06:41:50;;;;;;;14.95;4.13;;;8.00;99.90;;;;;;5027224;28;20539;-60
2023/03/13 06:44:15;;;;;;;15.88;3.35;;;8.00;99.90;;;;;;5025066;28;20029;-61
2023/03/13 06:46:41;;;;;;;13.70;3.60;;;8.00;99.90;;;;;;5044864;28;20279;-61
2023/03/13 06:49:07;;;;;;;19.38;4.40;;;8.10;99.90;;;;;;5025041;28;20121;-61
2023/03/13 06:51:32;;;;;;;15.45;3.55;;;8.10;99.90;;;;;;5045523;28;20067;-61
2023/03/13 06:53:58;;;;;;;11.68;3.22;;;8.10;99.90;;;;;;5025589;28;20426;-61
2023/03/13 06:56:23;;;;;;;20.35;4.55;;;8.10;99.90;;;;;;5045924;28;20036;-61
2023/03/13 06:58:49;;;;;;;19.23;4.25;;;8.20;99.90;;;;;;5025294;28;20194;-61
2023/03/13 07:01:16;;;;;;;16.75;4.18;;;8.20;99.90;;;;;;5045887;28;20032;-61
2023/03/13 07:03:42;;;;;;;15.43;4.20;;;8.20;99.90;;;;;;5025234;28;20029;-61
2023/03/13 07:06:10;;;;;;;18.75;5.55;;;8.30;99.90;;;;;;5042844;28;20396;-61
2023/03/13 07:08:35;;;;;;;14.73;5.03;;;8.40;99.90;;;;;;5023878;28;20042;-61
2023/03/13 07:11:04;;;;;;;16.48;4.00;;;8.40;99.90;;;;;;5045948;28;20033;-61
2023/03/13 07:13:30;;;;;;;21.33;4.80;;;8.50;99.90;;;;;;5024922;28;20041;-61
2023/03/13 07:16:00;;;;;;;25.73;5.32;;;8.50;99.90;;;;;;5045640;28;20105;-61
2023/03/13 07:18:25;;;;;;;18.50;4.43;;;8.50;99.90;;;;;;5024826;28;20421;-61
2023/03/13 07:20:53;;;;;;;16.65;4.90;;;8.60;99.90;;;;;;5025773;28;20547;-55
2023/03/13 07:23:19;;;;;;;14.57;4.38;;;8.50;99.90;;;;;;5034719;28;20056;-61
2023/03/13 07:25:55;;;;;;;19.98;4.68;;;8.60;99.90;;;;;;5017886;28;20103;-60
2023/03/13 07:28:21;;;;;;;15.75;4.43;;;8.60;99.90;;;;;;5031860;28;20033;-59
2023/03/13 07:30:46;;;;;;;20.88;4.90;;;8.70;99.90;;;;;;5024862;28;20580;-60
2023/03/13 07:33:12;;;;;;;19.10;4.63;;;8.70;99.90;;;;;;5031832;28;20061;-60
2023/03/13 07:35:37;;;;;;;13.18;3.47;;;8.70;99.90;;;;;;5026358;28;20034;-60
2023/03/13 07:38:03;;;;;;;17.13;4.63;;;8.70;99.90;;;;;;5036054;28;20059;-60
2023/03/13 07:40:28;;;;;;;16.48;4.40;;;8.80;99.90;;;;;;5044077;28;20036;-60
2023/03/13 07:42:54;;;;;;;13.93;3.90;;;8.80;99.90;;;;;;5033070;28;20048;-60
2023/03/13 07:45:19;;;;;;;18.58;4.32;;;8.80;99.90;;;;;;5033910;28;20110;-60
2023/03/13 07:47:45;;;;;;;16.63;3.97;;;8.90;99.90;;;;;;5037660;28;20045;-60
2023/03/13 07:50:10;;;;;;;12.00;3.67;;;8.90;99.90;;;;;;5050209;28;20104;-63
2023/03/13 07:52:36;;;;;;;17.33;4.35;;;8.80;99.90;;;;;;5029988;28;20029;-60
2023/03/13 07:55:01;;;;;;;10.55;3.40;;;8.80;99.90;;;;;;5049902;28;20441;-60
2023/03/13 07:57:27;;;;;;;15.80;3.72;;;8.80;99.90;;;;;;5037939;28;20100;-60
2023/03/13 07:59:52;;;;;;;20.20;4.18;;;8.80;99.90;;;;;;5030984;28;20389;-60
2023/03/13 08:02:18;;;;;;;26.90;4.40;;;8.80;99.90;;;;;;5048037;28;20041;-61
2023/03/13 08:04:43;;;;;;;19.70;4.03;;;8.90;99.90;;;;;;5040821;28;20029;-60
2023/03/13 08:07:10;;;;;;;18.95;3.80;;;8.90;99.90;;;;;;5034428;28;20044;-61
2023/03/13 08:09:35;;;;;;;15.93;3.75;;;9.00;99.90;;;;;;5050488;28;20017;-61
2023/03/13 08:12:01;;;;;;;13.95;3.65;;;9.00;99.90;;;;;;5034331;28;20033;-61
2023/03/13 08:14:26;;;;;;;15.07;3.70;;;9.00;99.90;;;;;;5050298;28;20025;-60
2023/03/13 08:16:52;;;;;;;15.57;3.35;;;9.00;99.90;;;;;;5032566;28;20029;-60
2023/03/13 08:19:17;;;;;;;21.60;4.13;;;9.00;99.90;;;;;;5050427;28;20035;-61
2023/03/13 08:21:43;;;;;;;27.17;5.32;;;9.10;99.90;;;;;;5031435;28;20103;-59
2023/03/13 08:24:11;;;;;;;14.73;3.63;;;9.10;99.90;;;;;;5049996;28;20272;-60
2023/03/13 08:26:38;;;;;;;19.90;4.47;;;9.10;99.90;;;;;;5030164;28;20033;-61
2023/03/13 08:29:09;;;;;;;14.27;3.47;;;9.10;99.90;;;;;;5050032;28;20025;-60
2023/03/13 08:31:40;;;;;;;15.70;3.60;;;9.10;99.90;;;;;;5011301;28;20054;-60
2023/03/13 08:34:06;;;;;;;17.70;3.80;;;9.10;99.90;;;;;;5049887;28;20108;-60
2023/03/13 08:36:33;;;;;;;13.93;3.10;;;9.20;99.90;;;;;;5029455;28;20446;-60
2023/03/13 08:39:03;;;;;;;12.70;3.20;;;9.20;99.90;;;;;;5049934;28;20029;-60
2023/03/13 08:41:33;;;;;;;12.38;3.28;;;9.20;99.90;;;;;;5028294;28;20034;-60
2023/03/13 08:43:59;;;;;;;13.73;3.58;;;9.20;99.90;;;;;;5049840;28;20032;-60
2023/03/13 08:46:27;;;;;;;15.45;3.72;;;9.20;99.90;;;;;;5028483;28;20034;-58
2023/03/13 08:48:53;;;;;;;15.55;3.70;;;9.30;99.90;;;;;;5049551;28;20473;-60
2023/03/13 08:51:21;;;;;;;6.40;3.03;;;9.30;99.90;;;;;;5030286;28;20040;-60
2023/03/13 08:53:48;;;;;;;15.90;3.00;;;9.30;99.90;;;;;;5047776;28;20056;-59
2023/03/13 08:56:16;;;;;;;11.55;3.42;;;9.30;99.90;;;;;;5030263;28;20481;-60
2023/03/13 08:58:42;;;;;;;14.57;3.65;;;9.30;99.90;;;;;;5028344;28;20041;-60
2023/03/13 09:01:13;;;;;;;13.98;4.03;;;9.30;99.90;;;;;;5048630;28;20021;-59
2023/03/13 09:03:38;;;;;;;12.43;3.83;;;9.30;99.90;;;;;;5026489;28;20044;-60
2023/03/13 09:06:04;;;;;;;11.93;3.85;;;9.30;99.90;;;;;;5045287;28;20115;-59
2023/03/13 09:08:31;;;;;;;11.65;3.08;;;9.30;99.90;;;;;;5027749;28;20096;-59
2023/03/13 09:11:05;;;;;;;10.35;2.63;;;9.30;99.90;;;;;;5048619;28;20025;-60
2023/03/13 09:13:34;;;;;;;14.30;2.97;;;9.30;99.90;;;;;;5024725;28;20035;-60
2023/03/13 09:16:02;;;;;;;11.93;2.70;;;9.30;99.90;;;;;;5048930;28;20119;-56
2023/03/13 09:18:28;;;;;;;6.35;2.88;;;9.30;99.90;;;;;;5027509;28;20021;-55
2023/03/13 09:20:54;;;;;;;10.60;2.55;;;9.30;99.90;;;;;;5048247;28;20029;-57
2023/03/13 09:23:20;;;;;;;8.13;3.65;;;9.30;99.90;;;;;;5027867;28;20037;-55
2023/03/13 09:25:46;;;;;;;8.05;2.30;;;9.30;99.90;;;;;;5048368;28;20100;-55
2023/03/13 09:28:12;;;;;;;7.28;2.58;;;9.40;99.90;;;;;;5027297;28;20045;-57
2023/03/13 09:30:37;;;;;;;9.77;2.58;;;9.40;99.90;;;;;;5042346;28;20095;-56
2023/03/13 09:33:03;;;;;;;9.55;2.78;;;9.40;99.90;;;;;;5040633;28;20037;-56
2023/03/13 09:35:29;;;;;;;9.90;2.33;;;9.50;99.90;;;;;;5029278;28;20398;-56
2023/03/13 09:37:54;;;;;;;9.20;2.72;;;9.50;99.90;;;;;;5033922;28;20156;-57
2023/03/13 09:40:22;;;;;;;9.02;2.53;;;9.50;99.90;;;;;;5048019;28;20246;-55
2023/03/13 09:42:58;;;;;;;14.10;3.45;;;9.60;99.90;;;;;;5026902;28;20242;-55
2023/03/13 09:45:39;;;;;;;12.93;3.28;;;9.60;99.90;;;;;;5008962;28;20029;-54
2023/03/13 09:48:12;;;;;;;9.07;3.60;;;9.70;99.90;;;;;;5020684;28;20045;-55
2023/03/13 09:50:46;;;;;;;9.88;3.05;;;9.70;99.90;;;;;;5009103;28;20444;-53
2023/03/13 09:53:22;;;;;;;9.88;3.53;;;9.70;99.90;;;;;;5021343;28;20507;-55
2023/03/13 09:55:47;;;;;;;10.20;3.65;;;9.70;99.90;;;;;;5008726;28;20022;-54
2023/03/13 09:58:23;;;;;;;7.38;3.42;;;9.80;99.90;;;;;;5030500;28;20390;-54
2023/03/13 10:00:55;;;;;;;14.63;4.50;;;9.80;99.90;;;;;;5047928;28;20051;-55
2023/03/13 10:03:27;;;;;;;10.80;3.33;;;9.80;99.90;;;;;;5026932;28;20030;-56
2023/03/13 10:05:56;;;;;;;11.25;3.60;;;9.80;99.90;;;;;;5003804;28;20121;-56
2023/03/13 10:08:24;;;;;;;12.30;3.60;;;9.80;99.90;;;;;;5029659;28;20522;-55
2023/03/13 10:11:27;;;;;;;8.98;3.05;;;9.90;99.90;;;;;;5047263;28;20025;-55
2023/03/13 10:14:13;;;;;;;10.68;3.08;;;9.90;99.90;;;;;;5048087;28;20025;-56
2023/03/13 10:16:53;;;;;;;9.88;2.70;;;10.00;99.90;;;;;;5010643;28;20021;-54
2023/03/13 10:19:26;;;;;;;6.72;2.08;;;10.00;99.90;;;;;;5048290;28;20024;-55
2023/03/13 10:21:54;;;;;;;8.80;2.60;;;10.00;99.90;;;;;;5013548;28;20025;-57
2023/03/13 10:24:43;;;;;;;11.23;2.33;;;10.00;99.90;;;;;;5048122;28;20469;-56
2023/03/13 10:27:12;;;;;;;8.75;2.58;;;10.10;99.90;;;;;;5018410;28;20094;-52
2023/03/13 10:29:38;;;;;;;10.43;2.72;;;10.10;99.90;;;;;;5048071;28;20013;-51
2023/03/13 10:32:06;;;;;;;10.85;2.40;;;10.10;99.90;;;;;;5032053;28;20055;-60
2023/03/13 10:34:44;;;;;;;6.40;2.35;;;10.10;99.90;;;;;;5047885;28;20021;-60
2023/03/13 10:37:13;;;;;;;5.72;2.00;;;10.10;99.90;;;;;;5032403;28;20044;-60
2023/03/13 10:39:39;;;;;;;8.82;2.15;;;10.20;99.90;;;;;;5047985;28;20060;-60
2023/03/13 10:42:20;;;;;;;5.05;1.92;;;10.20;99.90;;;;;;5032172;28;20523;-59
2023/03/13 10:44:45;;;;;;;6.13;1.95;;;10.30;99.90;;;;;;5047830;28;20036;-60
2023/03/13 10:47:14;;;;;;;6.05;1.73;;;10.30;99.90;;;;;;5032483;28;20045;-60
2023/03/13 10:49:49;;;;;;;6.13;2.03;;;10.40;99.90;;;;;;5047798;28;20025;-60
2023/03/13 10:52:46;;;;;;;8.32;2.08;;;10.60;99.90;;;;;;5032891;28;20147;-60
2023/03/13 10:55:19;;;;;;;7.75;2.08;;;10.80;99.90;;;;;;5007892;28;20018;-59
2023/03/13 10:57:58;;;;;;;4.30;2.35;;;10.90;99.90;;;;;;5028146;28;20033;-61
2023/03/13 11:00:33;;;;;;;8.00;1.70;;;11.00;99.90;;;;;;5028124;28;20021;-60
2023/03/13 11:02:58;;;;;;;6.95;1.90;;;11.10;99.90;;;;;;5017718;28;20640;-60
2023/03/13 11:05:42;;;;;;;6.10;2.13;;;11.30;99.90;;;;;;5035054;28;20041;-61
2023/03/13 11:08:32;;;;;;;4.95;1.75;;;11.50;99.90;;;;;;5019939;28;20033;-60
2023/03/13 11:11:03;;;;;;;4.57;1.63;;;11.70;99.90;;;;;;5007967;28;20422;-60
2023/03/13 11:13:40;;;;;;;5.10;1.60;;;11.80;99.90;;;;;;5023100;28;20690;-61
2023/03/13 11:16:29;;;;;;;5.03;1.60;;;12.10;99.90;;;;;;5008163;28;20022;-61
2023/03/13 11:19:12;;;;;;;3.80;1.67;;;12.20;99.90;;;;;;5007909;28;20033;-60
2023/03/13 11:21:50;;;;;;;3.75;1.55;;;12.30;99.90;;;;;;5011245;28;20113;-60
2023/03/13 11:24:30;;;;;;;4.82;1.52;;;12.50;99.90;;;;;;5051395;28;20025;-60
2023/03/13 11:27:08;;;;;;;3.72;1.65;;;12.60;99.90;;;;;;5017143;28;20033;-61
2023/03/13 11:29:57;;;;;;;7.47;2.50;;;12.60;99.90;;;;;;5051217;28;20017;-61
2023/03/13 11:32:37;;;;;;;2.67;1.20;;;12.70;99.90;;;;;;5025664;28;20127;-61
2023/03/13 11:35:15;;;;;;;4.50;1.60;;;12.80;99.90;;;;;;5011462;28;20056;-60
2023/03/13 11:37:42;;;;;;;2.80;1.40;;;12.90;99.90;;;;;;5030205;28;20032;-61
2023/03/13 11:40:47;;;;;;;5.88;1.58;;;13.10;99.90;;;;;;5031272;28;20040;-61
2023/03/13 11:43:53;;;;;;;3.72;1.38;;;13.20;99.90;;;;;;5023845;28;20105;-61
2023/03/13 11:46:31;;;;;;;4.37;1.80;;;13.40;99.90;;;;;;4994632;28;20042;-61
2023/03/13 11:49:08;;;;;;;5.80;1.48;;;13.40;99.90;;;;;;5011250;28;20092;-61
2023/03/13 11:52:07;;;;;;;4.15;1.73;;;13.50;99.90;;;;;;5011672;28;20054;-61
2023/03/13 11:54:47;;;;;;;3.67;1.50;;;13.50;99.90;;;;;;5036936;28;20109;-61
2023/03/13 11:57:20;;;;;;;3.90;1.75;;;13.60;99.90;;;;;;5009690;28;20647;-61
2023/03/13 12:00:21;;;;;;;3.80;1.40;;;13.70;99.90;;;;;;5021084;28;20032;-61
2023/03/13 12:03:03;;;;;;;4.00;1.10;;;13.80;99.90;;;;;;5009336;28;20087;-61
2023/03/13 12:05:40;;;;;;;2.78;1.23;;;13.90;99.90;;;;;;5036471;28;20102;-61
2023/03/13 12:08:15;;;;;;;1.90;1.13;;;14.00;99.90;;;;;;5007967;28;20034;-59
2023/03/13 12:10:47;;;;;;;1.45;0.88;;;14.00;99.90;;;;;;5049345;28;20029;-61
2023/03/13 12:13:22;;;;;;;2.10;0.95;;;14.10;99.90;;;;;;5010921;28;20052;-60
2023/03/13 12:15:56;;;;;;;1.20;0.77;;;14.10;99.90;;;;;;5050166;28;20021;-59
2023/03/13 12:18:30;;;;;;;3.20;0.82;;;14.20;99.90;;;;;;5013850;28;20284;-61
2023/03/13 12:20:59;;;;;;;1.30;0.88;;;14.20;99.90;;;;;;5050252;28;20489;-61
2023/03/13 12:24:02;;;;;;;1.00;0.90;;;14.20;99.90;;;;;;5031321;28;20032;-61
2023/03/13 12:26:38;;;;;;;1.33;0.90;;;14.20;99.90;;;;;;5030616;28;20026;-60
2023/03/13 12:29:13;;;;;;;;;;;14.30;99.90;;;;;;5025696;28;20036;-61
2023/03/13 12:31:49;;;;;;;1.38;0.85;;;14.30;99.90;;;;;;5009898;28;19929;-61
2023/03/13 12:34:32;;;;;;;1.67;0.77;;;14.40;99.90;;;;;;5028081;28;20032;-61
2023/03/13 12:37:06;;;;;;;2.03;1.25;;;14.60;99.90;;;;;;5010676;28;20030;-60
2023/03/13 12:40:06;;;;;;;1.10;0.82;;;14.70;99.90;;;;;;5032505;28;20029;-61
2023/03/13 12:43:11;;;;;;;2.13;0.90;;;14.80;99.90;;;;;;5010351;28;20056;-61
2023/03/13 12:45:50;;;;;;;1.05;0.70;;;14.90;99.90;;;;;;5010369;28;20026;-60
2023/03/13 12:48:40;;;;;;;1.38;0.70;;;14.80;99.90;;;;;;5011773;28;20058;-61
2023/03/13 12:51:31;;;;;;;3.67;1.20;;;14.90;99.90;;;;;;5049717;28;20025;-61
2023/03/13 12:54:19;;;;;;;1.38;0.98;;;15.00;99.90;;;;;;5022439;28;20280;-60
2023/03/13 12:57:09;;;;;;;1.00;0.60;;;15.10;99.90;;;;;;5049651;28;20388;-60
2023/03/13 12:59:40;;;;;;;2.00;0.90;;;15.10;99.90;;;;;;5033108;28;20029;-61
2023/03/13 13:02:21;;;;;;;0.93;0.80;;;15.20;99.90;;;;;;5029683;28;20105;-60